createdAt,value
2023-05-06T00:02:23.154Z,100921.53
2023-05-06T00:07:26.269Z,100928.09
2023-05-06T00:12:27.966Z,100935.03
2023-05-06T00:17:29.707Z,100936.59
2023-05-06T00:22:32.778Z,100922.19
2023-05-06T00:27:34.508Z,100920.47
2023-05-06T00:32:36.290Z,100920.81
2023-05-06T00:37:39.337Z,100917.53
2023-05-06T00:42:41.073Z,100916.25
2023-05-06T00:47:43.194Z,100921.00
2023-05-06T00:52:46.333Z,100917.94
2023-05-06T00:57:50.356Z,100914.72
2023-05-06T01:02:52.160Z,100920.09
2023-05-06T01:07:58.595Z,100917.97
2023-05-06T01:13:04.375Z,100916.13
2023-05-06T01:18:08.863Z,100919.19
2023-05-06T01:23:12.998Z,100919.44
2023-05-06T01:28:14.862Z,100929.75
2023-05-06T01:33:20.634Z,100930.16
2023-05-06T01:38:27.894Z,100932.69
2023-05-06T01:43:31.702Z,100940.91
2023-05-06T01:48:33.824Z,100931.38
2023-05-06T01:53:36.912Z,100932.94
2023-05-06T01:58:38.629Z,100937.16
2023-05-06T02:03:40.683Z,100945.16
2023-05-06T02:08:44.087Z,100943.47
2023-05-06T02:13:50.760Z,100933.88
2023-05-06T02:18:53.784Z,100926.81
2023-05-06T02:23:56.920Z,100929.94
2023-05-06T02:28:58.616Z,100926.38
2023-05-06T02:34:00.303Z,100924.44
2023-05-06T02:39:04.652Z,100922.47
2023-05-06T02:44:06.409Z,100922.97
2023-05-06T02:49:26.717Z,100917.84
2023-05-06T02:54:29.932Z,100905.97
2023-05-06T02:59:31.668Z,100915.97
2023-05-06T03:04:33.495Z,100918.94
2023-05-06T03:09:36.576Z,100912.31
2023-05-06T03:14:38.531Z,100914.03
2023-05-06T03:19:40.346Z,100916.50
2023-05-06T03:24:45.840Z,100920.94
2023-05-06T03:29:47.755Z,100919.50
2023-05-06T03:34:50.944Z,100917.19
2023-05-06T03:39:56.828Z,100919.31
2023-05-06T03:45:01.482Z,100923.06
2023-05-06T03:50:07.322Z,100920.91
2023-05-06T03:55:12.079Z,100923.53
2023-05-06T04:00:14.787Z,100926.53
2023-05-06T04:05:21.644Z,100924.44
2023-05-06T04:10:24.992Z,100930.63
2023-05-06T04:15:32.768Z,100928.25
2023-05-06T04:20:35.780Z,100935.09
2023-05-06T04:25:39.497Z,100928.38
2023-05-06T04:30:41.458Z,100932.16
2023-05-06T04:35:50.010Z,100939.16
2023-05-06T04:40:53.590Z,100944.19
2023-05-06T04:45:55.734Z,100946.00
2023-05-06T04:51:04.189Z,100954.66
2023-05-06T04:56:07.994Z,100959.22
2023-05-06T05:01:11.450Z,100963.44
2023-05-06T05:06:13.732Z,100965.00
2023-05-06T05:11:16.999Z,100961.81
2023-05-06T05:16:19.043Z,100972.72
2023-05-06T05:21:21.614Z,100982.59
2023-05-06T05:26:25.117Z,100970.94
2023-05-06T05:31:29.308Z,100982.53
2023-05-06T05:36:31.672Z,100983.03
2023-05-06T05:41:36.869Z,100986.47
2023-05-06T05:46:38.832Z,100992.69
2023-05-06T05:51:41.560Z,100995.63
2023-05-06T05:56:46.631Z,101009.41
2023-05-06T06:01:49.118Z,101005.59
2023-05-06T06:06:51.086Z,101010.16
2023-05-06T06:11:54.726Z,101006.34
2023-05-06T06:16:56.549Z,101012.50
2023-05-06T06:21:58.360Z,101016.72
2023-05-06T06:27:02.206Z,101031.53
2023-05-06T06:32:04.397Z,101030.31
2023-05-06T06:37:07.841Z,101033.75
2023-05-06T06:42:11.272Z,101029.81
2023-05-06T06:47:22.737Z,101034.41
2023-05-06T06:52:24.499Z,101038.81
2023-05-06T06:57:27.593Z,101038.50
2023-05-06T07:02:29.364Z,101028.34
2023-05-06T07:07:31.150Z,101040.84
2023-05-06T07:12:34.271Z,101048.25
2023-05-06T07:17:36.285Z,101049.09
2023-05-06T07:22:37.995Z,101060.34
2023-05-06T07:27:41.121Z,101066.09
2023-05-06T07:32:43.492Z,101070.41
2023-05-06T07:37:45.690Z,101080.34
2023-05-06T07:42:48.762Z,101080.22
2023-05-06T07:47:50.595Z,101092.38
2023-05-06T07:52:52.437Z,101097.28
2023-05-06T07:57:55.475Z,101095.25
2023-05-06T08:02:57.363Z,101098.59
2023-05-06T08:07:59.215Z,101098.34
2023-05-06T08:13:02.525Z,101094.88
2023-05-06T08:18:13.825Z,101104.94
2023-05-06T08:23:20.260Z,101111.72
2023-05-06T08:28:24.670Z,101110.38
2023-05-06T08:33:27.169Z,101121.69
2023-05-06T08:38:29.731Z,101106.97
2023-05-06T08:43:33.318Z,101114.28
2023-05-06T08:48:35.025Z,101109.31
2023-05-06T08:53:37.000Z,101112.06
2023-05-06T08:58:40.221Z,101120.91
2023-05-06T09:03:41.933Z,101125.53
2023-05-06T09:08:43.752Z,101112.81
2023-05-06T09:13:46.941Z,101115.94
2023-05-06T09:18:48.634Z,101120.13
2023-05-06T09:23:50.697Z,101123.91
2023-05-06T09:28:53.911Z,101113.69
2023-05-06T09:33:56.316Z,101124.28
2023-05-06T09:38:58.179Z,101127.31
2023-05-06T09:44:01.394Z,101122.06
2023-05-06T09:49:03.777Z,101126.88
2023-05-06T09:54:05.596Z,101123.25
2023-05-06T09:59:08.641Z,101130.47
2023-05-06T10:04:10.910Z,101132.16
2023-05-06T10:09:12.914Z,101131.84
2023-05-06T10:14:16.029Z,101125.94
2023-05-06T10:19:19.014Z,101123.44
2023-05-06T10:24:23.499Z,101119.44
2023-05-06T10:29:26.723Z,101120.66
2023-05-06T10:34:28.415Z,101124.66
2023-05-06T10:39:30.162Z,101122.94
2023-05-06T10:44:57.192Z,101121.38
2023-05-06T10:50:21.090Z,101126.28
2023-05-06T10:55:27.248Z,101129.91
2023-05-06T11:00:32.321Z,101129.03
2023-05-06T11:05:46.007Z,101124.75
2023-05-06T11:10:47.896Z,101132.59
2023-05-06T11:15:52.019Z,101130.94
2023-05-06T11:21:22.784Z,101126.53
2023-05-06T11:26:24.807Z,101129.50
2023-05-06T11:31:27.975Z,101129.63
2023-05-06T11:36:29.790Z,101133.59
2023-05-06T11:41:31.418Z,101131.28
2023-05-06T11:46:34.482Z,101136.19
2023-05-06T11:51:36.221Z,101128.63
2023-05-06T11:56:44.533Z,101140.31
2023-05-06T12:01:47.647Z,101131.59
2023-05-06T12:06:49.394Z,101140.25
2023-05-06T12:11:51.307Z,101147.84
2023-05-06T12:16:56.079Z,101150.78
2023-05-06T12:22:19.495Z,101146.41
2023-05-06T12:27:31.464Z,101152.38
2023-05-06T12:32:34.541Z,101160.09
2023-05-06T12:37:36.234Z,101151.03
2023-05-06T12:42:37.942Z,101160.03
2023-05-06T12:47:51.325Z,101155.03
2023-05-06T12:52:53.063Z,101155.38
2023-05-06T12:57:57.216Z,101163.97
2023-05-06T13:03:01.425Z,101160.00
2023-05-06T13:08:04.371Z,101153.66
2023-05-06T13:13:06.549Z,101162.56
2023-05-06T13:18:09.907Z,101158.78
2023-05-06T13:23:11.725Z,101154.44
2023-05-06T13:28:13.526Z,101160.00
2023-05-06T13:33:16.644Z,101150.53
2023-05-06T13:38:18.371Z,101155.69
2023-05-06T13:43:20.105Z,101156.47
2023-05-06T13:48:23.095Z,101157.91
2023-05-06T13:53:24.825Z,101163.53
2023-05-06T13:58:26.767Z,101170.78
2023-05-06T14:03:29.773Z,101165.16
2023-05-06T14:08:32.690Z,101160.69
2023-05-06T14:13:34.407Z,101164.94
2023-05-06T14:18:37.450Z,101165.44
2023-05-06T14:23:39.213Z,101163.34
2023-05-06T14:28:40.925Z,101159.06
2023-05-06T14:33:43.936Z,101152.28
2023-05-06T14:38:45.608Z,101160.16
2023-05-06T14:43:47.265Z,101153.16
2023-05-06T14:48:50.654Z,101164.81
2023-05-06T14:53:52.340Z,101158.44
2023-05-06T14:58:54.066Z,101159.38
2023-05-06T15:03:57.142Z,101161.25
2023-05-06T15:08:58.843Z,101162.06
2023-05-06T15:14:00.588Z,101170.09
2023-05-06T15:19:04.289Z,101180.03
2023-05-06T15:24:06.957Z,101179.00
2023-05-06T15:29:08.666Z,101187.97
2023-05-06T15:34:11.794Z,101197.75
2023-05-06T15:39:13.519Z,101200.75
2023-05-06T15:44:16.359Z,101202.75
2023-05-06T15:49:48.842Z,101205.47
2023-05-06T15:54:41.506Z,101205.50
2023-05-06T15:59:43.297Z,101214.56
2023-05-06T16:04:46.546Z,101209.63
2023-05-06T16:09:49.079Z,101224.16
2023-05-06T16:14:51.001Z,101219.28
2023-05-06T16:19:54.033Z,101219.06
2023-05-06T16:24:56.012Z,101225.53
2023-05-06T16:29:57.795Z,101221.63
2023-05-06T16:35:00.917Z,101225.34
2023-05-06T16:40:02.733Z,101223.22
2023-05-06T16:45:06.078Z,101236.97
2023-05-06T16:50:09.811Z,101235.63
2023-05-06T16:55:11.768Z,101230.09
2023-05-06T17:00:15.385Z,101227.16
2023-05-06T17:05:20.635Z,101235.44
2023-05-06T17:10:29.048Z,101237.63
2023-05-06T17:15:31.032Z,101244.22
2023-05-06T17:20:51.510Z,101247.63
2023-05-06T17:25:57.223Z,101242.69
2023-05-06T17:30:58.987Z,101235.81
2023-05-06T17:36:02.147Z,101240.09
2023-05-06T17:41:04.210Z,101241.16
2023-05-06T17:46:06.746Z,101240.50
2023-05-06T17:51:09.961Z,101248.53
2023-05-06T17:56:11.788Z,101252.47
2023-05-06T18:01:13.606Z,101254.97
2023-05-06T18:06:16.889Z,101262.97
2023-05-06T18:11:18.716Z,101272.88
2023-05-06T18:16:20.697Z,101271.03
2023-05-06T18:21:23.933Z,101286.31
2023-05-06T18:26:39.915Z,101285.66
2023-05-06T18:31:46.172Z,101291.06
2023-05-06T18:36:49.223Z,101297.16
2023-05-06T18:41:51.016Z,101308.81
2023-05-06T18:46:52.697Z,101312.56
2023-05-06T18:51:56.058Z,101309.97
2023-05-06T18:56:58.652Z,101319.59
2023-05-06T19:02:01.915Z,101322.22
2023-05-06T19:07:05.794Z,101328.47
2023-05-06T19:12:07.545Z,101351.44
2023-05-06T19:17:09.384Z,101347.97
2023-05-06T19:22:13.578Z,101345.31
2023-05-06T19:27:15.553Z,101348.84
2023-05-06T19:32:17.313Z,101351.41
2023-05-06T19:37:20.367Z,101349.69
2023-05-06T19:42:22.057Z,101345.25
2023-05-06T19:47:23.929Z,101346.09
2023-05-06T19:52:30.410Z,101339.13
2023-05-06T19:57:33.628Z,101338.31
2023-05-06T20:02:36.224Z,101340.06
2023-05-06T20:07:39.323Z,101352.31
2023-05-06T20:12:41.336Z,101358.53
2023-05-06T20:17:43.255Z,101359.38
2023-05-06T20:22:46.352Z,101358.53
2023-05-06T20:27:48.083Z,101358.53
2023-05-06T20:32:51.968Z,101362.03
2023-05-06T20:37:55.701Z,101368.16
2023-05-06T20:42:57.467Z,101365.63
2023-05-06T20:47:59.279Z,101376.16
2023-05-06T20:53:02.408Z,101377.94
2023-05-06T20:58:04.306Z,101385.81
2023-05-06T21:03:06.174Z,101385.81
2023-05-06T21:08:09.328Z,101387.59
2023-05-06T21:13:11.058Z,101387.59
2023-05-06T21:18:13.217Z,101390.22
2023-05-06T21:23:16.421Z,101381.44
2023-05-06T21:28:18.232Z,101375.31
2023-05-06T21:33:19.982Z,101373.59
2023-05-06T21:38:23.110Z,101383.22
2023-05-06T21:43:24.848Z,101381.41
2023-05-06T21:48:26.583Z,101391.03
2023-05-06T21:53:29.628Z,101403.34
2023-05-06T21:58:31.332Z,101399.88
2023-05-06T22:03:33.151Z,101392.84
2023-05-06T22:08:36.302Z,101400.72
2023-05-06T22:13:38.038Z,101394.59
2023-05-06T22:18:41.456Z,101396.38
2023-05-06T22:23:44.713Z,101394.59
2023-05-06T22:28:47.033Z,101396.38
2023-05-06T22:33:52.093Z,101393.72
2023-05-06T22:38:55.234Z,101404.25
2023-05-06T22:43:59.907Z,101401.59
2023-05-06T22:49:01.715Z,101399.00
2023-05-06T22:54:04.983Z,101395.44
2023-05-06T22:59:07.113Z,101399.81
2023-05-06T23:04:08.913Z,101406.84
2023-05-06T23:09:12.478Z,101414.75
2023-05-06T23:14:14.200Z,101420.00
2023-05-06T23:19:15.889Z,101412.09
2023-05-06T23:24:18.900Z,101407.72
2023-05-06T23:29:20.666Z,101409.50
2023-05-06T23:34:22.399Z,101400.75
2023-05-06T23:39:25.455Z,101400.75
2023-05-06T23:44:27.207Z,101401.63
2023-05-06T23:49:28.928Z,101406.88
2023-05-06T23:54:31.964Z,101404.25
2023-05-06T23:59:33.757Z,101400.75
